Time;durP1;ratioP1;P1;durP2;ratioP2;P2;SDS_P1;SDS_P2;PMS_P1;PMS_P2;Temp;Humidity;BMP_temperature;BMP_pressure;BME280_temperature;BME280_humidity;BME280_pressure;Samples;Min_cycle;Max_cycle;Signal;HPM_P1;HPM_P2
2022/03/21 00:02:21;;;;;;;43.80;23.23;;;4.90;99.90;;;;;;5036753;28;20048;-82
2022/03/21 00:04:47;;;;;;;50.53;22.73;;;4.90;99.90;;;;;;5033951;28;20139;-81
2022/03/21 00:07:13;;;;;;;39.85;22.88;;;4.90;99.90;;;;;;5057115;28;20040;-79
2022/03/21 00:09:39;;;;;;;43.00;22.90;;;4.90;99.90;;;;;;5061272;28;20037;-82
2022/03/21 00:12:05;;;;;;;37.20;22.20;;;5.00;99.90;;;;;;5060268;28;20040;-79
2022/03/21 00:14:30;;;;;;;41.25;22.60;;;5.00;99.90;;;;;;5061062;28;20044;-80
2022/03/21 00:17:02;;;;;;;44.58;23.45;;;5.00;99.90;;;;;;5047363;28;20055;-79
2022/03/21 00:19:28;;;;;;;38.20;21.55;;;5.00;99.90;;;;;;5053883;28;20044;-80
2022/03/21 00:21:53;;;;;;;35.90;20.85;;;5.10;99.90;;;;;;5056185;28;20029;-79
2022/03/21 00:24:19;;;;;;;43.85;23.10;;;5.10;99.90;;;;;;5047711;28;20055;-81
2022/03/21 00:26:45;;;;;;;38.58;19.77;;;5.10;99.90;;;;;;5008331;28;20065;-80
2022/03/21 00:29:10;;;;;;;43.53;20.98;;;5.10;99.90;;;;;;5033194;28;20036;-79
2022/03/21 00:31:37;;;;;;;40.85;20.42;;;5.10;99.90;;;;;;5054695;28;20047;-80
2022/03/21 00:34:03;;;;;;;35.30;19.75;;;5.40;99.90;;;;;;5024726;28;20052;-79
2022/03/21 00:36:28;;;;;;;38.10;18.80;;;5.10;99.90;;;;;;5048522;28;20036;-81
2022/03/21 00:38:54;;;;;;;36.83;19.48;;;5.10;99.90;;;;;;5038126;28;20040;-82
2022/03/21 00:41:22;;;;;;;32.72;17.23;;;5.10;99.90;;;;;;5043338;28;20508;-79
2022/03/21 00:43:47;;;;;;;32.58;17.70;;;5.10;99.90;;;;;;5039290;28;20047;-80
2022/03/21 00:46:13;;;;;;;35.65;18.63;;;5.00;99.90;;;;;;5054669;28;20186;-81
2022/03/21 00:48:39;;;;;;;37.63;18.08;;;5.00;99.90;;;;;;5064847;28;20108;-78
2022/03/21 00:51:05;;;;;;;30.73;16.67;;;5.00;99.90;;;;;;5054241;28;20040;-79
2022/03/21 00:53:30;;;;;;;25.98;15.80;;;5.00;99.90;;;;;;5053743;28;20140;-81
2022/03/21 00:55:56;;;;;;;36.15;18.08;;;5.00;99.90;;;;;;5055448;28;20040;-79
2022/03/21 00:58:22;;;;;;;33.58;16.98;;;5.10;99.90;;;;;;5037690;28;20371;-80
2022/03/21 01:00:48;;;;;;;27.90;16.65;;;5.00;99.90;;;;;;5053938;28;20070;-80
2022/03/21 01:03:14;;;;;;;31.58;16.92;;;5.00;99.90;;;;;;5040749;28;20047;-81
2022/03/21 01:05:40;;;;;;;30.38;15.13;;;5.00;99.90;;;;;;5040916;28;20044;-80
2022/03/21 01:08:06;;;;;;;25.65;14.68;;;5.00;99.90;;;;;;5054390;28;20055;-79
2022/03/21 01:10:32;;;;;;;31.17;16.88;;;5.00;99.90;;;;;;5054096;28;20036;-80
2022/03/21 01:12:58;;;;;;;33.53;15.25;;;5.00;99.90;;;;;;5054156;28;20119;-79
2022/03/21 01:15:26;;;;;;;28.35;15.43;;;5.00;99.90;;;;;;5054182;28;20123;-81
2022/03/21 01:17:53;;;;;;;26.25;15.70;;;5.00;99.90;;;;;;5048973;28;20040;-80
2022/03/21 01:20:20;;;;;;;30.58;14.85;;;5.10;99.90;;;;;;5062921;28;20044;-80
2022/03/21 01:22:47;;;;;;;24.80;14.00;;;5.10;99.90;;;;;;5038005;28;20076;-82
2022/03/21 01:25:13;;;;;;;29.70;13.98;;;5.20;99.90;;;;;;5054750;28;20051;-81
2022/03/21 01:27:40;;;;;;;21.35;11.63;;;5.00;99.90;;;;;;5054782;28;20119;-79
2022/03/21 01:30:09;;;;;;;23.33;13.27;;;4.90;99.90;;;;;;5054441;28;20170;-79
2022/03/21 01:32:35;;;;;;;25.05;14.32;;;4.90;99.90;;;;;;5069241;28;20044;-80
2022/03/21 01:35:02;;;;;;;29.10;14.40;;;4.90;99.90;;;;;;5052253;28;20044;-81
2022/03/21 01:37:28;;;;;;;25.08;11.50;;;4.90;99.90;;;;;;5068039;28;20064;-81
2022/03/21 01:39:54;;;;;;;29.17;12.90;;;4.80;99.90;;;;;;5046297;28;20382;-80
2022/03/21 01:42:20;;;;;;;26.95;14.05;;;4.80;99.90;;;;;;5049017;28;20051;-78
2022/03/21 01:44:49;;;;;;;24.67;12.77;;;4.80;99.90;;;;;;5073730;28;20052;-78
2022/03/21 01:47:15;;;;;;;28.45;12.20;;;4.80;99.90;;;;;;5046342;28;20049;-78
2022/03/21 01:49:40;;;;;;;22.48;13.18;;;4.70;99.90;;;;;;5047401;28;20042;-78
2022/03/21 01:52:06;;;;;;;23.52;12.95;;;4.70;99.90;;;;;;5048788;28;20045;-79
2022/03/21 01:57:16;;;;;;;20.05;11.80;;;4.70;99.90;;;;;;5037595;28;20052;-76
2022/03/21 01:59:42;;;;;;;27.13;13.05;;;4.50;99.90;;;;;;5065569;28;20048;-77
2022/03/21 02:02:08;;;;;;;25.17;11.73;;;4.40;99.90;;;;;;5047028;28;20079;-79
2022/03/21 02:04:34;;;;;;;20.55;12.10;;;4.30;99.90;;;;;;5049579;28;20041;-78
2022/03/21 02:07:00;;;;;;;23.25;12.20;;;4.20;99.90;;;;;;5052907;28;20044;-80
2022/03/21 02:09:28;;;;;;;20.95;12.30;;;4.10;99.90;;;;;;5048233;28;20454;-78
2022/03/21 02:11:55;;;;;;;22.50;11.70;;;4.00;99.90;;;;;;5053716;28;20048;-78
2022/03/21 02:14:21;;;;;;;21.65;12.20;;;4.00;99.90;;;;;;5054211;28;20060;-79
2022/03/21 02:16:47;;;;;;;23.92;12.45;;;3.90;99.90;;;;;;5058072;28;20115;-82
2022/03/21 02:19:16;;;;;;;22.33;12.02;;;3.90;99.90;;;;;;5040283;28;20080;-81
2022/03/21 02:22:03;;;;;;;23.13;11.25;;;3.80;99.90;;;;;;5041360;28;20131;-80
2022/03/21 02:24:47;;;;;;;21.92;13.02;;;3.70;99.90;;;;;;5058862;28;20040;-79
2022/03/21 02:27:15;;;;;;;23.23;12.35;;;3.60;99.90;;;;;;5057986;28;20059;-79
2022/03/21 02:29:42;;;;;;;21.75;11.50;;;3.50;99.90;;;;;;5042053;28;20040;-80
2022/03/21 02:32:08;;;;;;;16.70;11.35;;;3.40;99.90;;;;;;5057854;28;20036;-82
2022/03/21 02:34:37;;;;;;;20.40;11.27;;;3.30;99.90;;;;;;5042118;28;20094;-79
2022/03/21 02:37:05;;;;;;;25.05;11.82;;;3.20;99.90;;;;;;5058065;28;20043;-80
2022/03/21 02:39:31;;;;;;;23.88;11.75;;;3.10;99.90;;;;;;5041217;28;20040;-81
2022/03/21 02:41:57;;;;;;;25.80;11.75;;;3.10;99.90;;;;;;5057187;28;20052;-81
2022/03/21 02:44:23;;;;;;;24.40;12.35;;;3.10;99.90;;;;;;5041129;28;20052;-80
2022/03/21 02:46:49;;;;;;;;;;;3.10;99.90;;;;;;5058550;28;20040;-78
2022/03/21 02:49:15;;;;;;;20.23;11.82;;;3.10;99.90;;;;;;5064422;28;20176;-78
2022/03/21 02:51:43;;;;;;;18.02;10.00;;;3.30;99.90;;;;;;5061469;28;20040;-80
2022/03/21 02:54:10;;;;;;;19.02;10.27;;;3.00;99.90;;;;;;5057968;28;20071;-80
2022/03/21 02:56:36;;;;;;;20.75;11.98;;;2.90;99.90;;;;;;5058354;28;20044;-81
2022/03/21 02:59:02;;;;;;;29.95;12.75;;;2.90;99.90;;;;;;5056929;28;20056;-79
2022/03/21 03:01:29;;;;;;;24.92;13.07;;;2.90;99.90;;;;;;5058005;28;20049;-80
2022/03/21 03:03:54;;;;;;;;;;;3.10;99.90;;;;;;5040652;28;20119;-79
2022/03/21 03:06:20;;;;;;;21.52;12.00;;;3.30;99.90;;;;;;5040559;28;20007;-81
2022/03/21 03:08:47;;;;;;;25.27;12.23;;;3.40;99.90;;;;;;5059476;28;20045;-81
2022/03/21 03:11:13;;;;;;;24.23;12.05;;;3.40;99.90;;;;;;5057302;28;20055;-82
2022/03/21 03:13:38;;;;;;;20.02;12.18;;;3.30;99.90;;;;;;5056943;28;20032;-80
2022/03/21 03:16:05;;;;;;;25.67;12.32;;;3.20;99.90;;;;;;5065935;28;20043;-81
2022/03/21 03:18:31;;;;;;;25.63;10.70;;;3.20;99.90;;;;;;5059763;28;20033;-79
2022/03/21 03:20:58;;;;;;;22.48;12.45;;;3.10;99.90;;;;;;5055917;28;20375;-81
2022/03/21 03:23:26;;;;;;;22.02;12.18;;;3.00;99.90;;;;;;5055682;28;20032;-80
2022/03/21 03:26:01;;;;;;;25.00;12.35;;;3.00;99.90;;;;;;5056603;28;20028;-81
2022/03/21 03:28:27;;;;;;;22.65;11.68;;;3.50;99.90;;;;;;5055611;28;20033;-81
2022/03/21 03:30:54;;;;;;;19.95;10.63;;;2.90;99.90;;;;;;5039381;28;20044;-79
2022/03/21 03:33:20;;;;;;;28.55;12.48;;;2.90;99.90;;;;;;5054847;28;20044;-81
2022/03/21 03:35:46;;;;;;;;;;;2.90;99.90;;;;;;5055888;28;20040;-81
2022/03/21 03:38:12;;;;;;;19.48;10.40;;;2.80;99.90;;;;;;5055411;28;19917;-79
2022/03/21 03:40:38;;;;;;;17.75;10.75;;;2.80;99.90;;;;;;5056300;28;20078;-79
2022/03/21 03:43:03;;;;;;;27.50;12.15;;;2.70;99.90;;;;;;5019708;28;20041;-82
2022/03/21 03:45:29;;;;;;;27.73;14.13;;;2.70;99.90;;;;;;5035433;28;20469;-80
2022/03/21 03:47:55;;;;;;;20.23;11.48;;;3.00;99.90;;;;;;5059917;28;20486;-78
2022/03/21 03:50:21;;;;;;;18.30;10.90;;;2.60;99.90;;;;;;5042169;28;20103;-82
2022/03/21 03:52:47;;;;;;;20.88;11.15;;;2.60;99.90;;;;;;5038829;28;20033;-81
2022/03/21 03:55:14;;;;;;;25.67;11.95;;;2.70;99.90;;;;;;5051888;28;20048;-81
2022/03/21 03:57:40;;;;;;;16.25;9.13;;;2.70;99.90;;;;;;5052512;28;20040;-81
2022/03/21 04:00:07;;;;;;;20.60;10.50;;;2.60;99.90;;;;;;5035550;28;20040;-78
2022/03/21 04:03:44;;;;;;;20.17;11.40;;;2.60;99.90;;;;;;5040311;28;20470;-78
2022/03/21 04:05:21;;;;;;;19.33;11.25;;;2.60;99.90;;;;;;5038037;28;20059;-78
2022/03/21 04:07:47;;;;;;;26.80;12.07;;;2.50;99.90;;;;;;5039786;28;20462;-79
2022/03/21 04:10:13;;;;;;;17.55;11.25;;;2.50;99.90;;;;;;5027981;28;20105;-79
2022/03/21 04:12:39;;;;;;;19.85;11.13;;;2.50;99.90;;;;;;5062248;28;20082;-82
2022/03/21 04:15:07;;;;;;;;;;;2.50;99.90;;;;;;5072397;28;20286;-78
2022/03/21 04:17:35;;;;;;;18.52;10.60;;;2.40;99.90;;;;;;5042324;28;20325;-78
2022/03/21 04:20:05;;;;;;;17.25;10.57;;;2.30;99.90;;;;;;5034745;28;20048;-79
2022/03/21 04:22:30;;;;;;;27.13;12.30;;;2.30;99.90;;;;;;5045675;28;20051;-77
2022/03/21 04:24:56;;;;;;;22.48;10.43;;;2.20;99.90;;;;;;5055373;28;20048;-79
2022/03/21 04:27:22;;;;;;;;;;;2.10;99.90;;;;;;5035284;28;20076;-79
2022/03/21 04:29:48;;;;;;;16.45;9.50;;;2.10;99.90;;;;;;5051870;28;19963;-78
2022/03/21 04:32:13;;;;;;;18.45;9.77;;;2.00;99.90;;;;;;5054929;28;20041;-80
2022/03/21 04:34:39;;;;;;;16.92;10.48;;;2.00;99.90;;;;;;5034118;28;20121;-78
2022/03/21 04:37:05;;;;;;;21.70;11.43;;;2.00;99.90;;;;;;5051153;28;20041;-79
2022/03/21 04:39:30;;;;;;;24.58;11.25;;;1.90;99.90;;;;;;5052010;28;20340;-80
2022/03/21 04:41:57;;;;;;;23.60;11.50;;;1.80;99.90;;;;;;5052002;28;20098;-79
2022/03/21 04:44:23;;;;;;;25.10;11.13;;;1.70;99.90;;;;;;5058006;28;20140;-79
2022/03/21 04:46:48;;;;;;;20.63;11.77;;;1.70;99.90;;;;;;5035743;28;20079;-79
2022/03/21 04:49:14;;;;;;;18.88;10.05;;;1.60;99.90;;;;;;5039107;28;20068;-80
2022/03/21 04:51:41;;;;;;;20.15;10.60;;;1.60;99.90;;;;;;5065666;28;20028;-80
2022/03/21 04:54:08;;;;;;;22.50;10.63;;;1.60;99.90;;;;;;5037759;28;20044;-79
2022/03/21 04:56:33;;;;;;;21.52;11.80;;;1.70;99.90;;;;;;5045165;28;20040;-81
2022/03/21 04:58:59;;;;;;;26.83;11.27;;;1.60;99.90;;;;;;5029611;28;20458;-78
2022/03/21 05:01:25;;;;;;;21.48;11.95;;;1.70;99.90;;;;;;5035241;28;20049;-81
2022/03/21 05:03:50;;;;;;;18.08;10.45;;;1.70;99.90;;;;;;5053244;28;20127;-79
2022/03/21 05:06:17;;;;;;;18.55;11.00;;;1.70;99.90;;;;;;5062271;28;20052;-79
2022/03/21 05:08:45;;;;;;;21.35;11.57;;;1.70;99.90;;;;;;5041119;28;20414;-78
2022/03/21 05:11:11;;;;;;;19.90;12.05;;;1.70;99.90;;;;;;5032388;28;20127;-78
2022/03/21 05:13:37;;;;;;;18.17;10.80;;;1.50;99.90;;;;;;5050393;28;20122;-78
2022/03/21 05:16:05;;;;;;;21.15;10.43;;;1.50;99.90;;;;;;5026228;28;20045;-80
2022/03/21 05:18:34;;;;;;;19.98;10.73;;;1.40;99.90;;;;;;5049512;28;20170;-81
2022/03/21 05:21:01;;;;;;;21.60;11.73;;;1.40;99.90;;;;;;5036151;28;20037;-78
2022/03/21 05:31:39;;;;;;;17.52;11.10;;;1.20;99.90;;;;;;5051908;28;20080;-80
2022/03/21 05:36:50;;;;;;;24.35;10.38;;;1.40;99.90;;;;;;5029646;28;20092;-80
2022/03/21 05:39:16;;;;;;;18.52;10.05;;;1.10;99.90;;;;;;5050210;28;20041;-80
2022/03/21 05:41:42;;;;;;;;;;;1.10;99.90;;;;;;5054791;28;20056;-79
2022/03/21 05:44:11;;;;;;;22.23;11.18;;;1.10;99.90;;;;;;5036751;28;19921;-77
2022/03/21 05:46:37;;;;;;;23.98;10.95;;;1.10;99.90;;;;;;5061484;28;20489;-80
2022/03/21 05:49:04;;;;;;;26.25;12.23;;;1.10;99.90;;;;;;5057611;28;20070;-79
2022/03/21 05:51:36;;;;;;;20.75;11.88;;;1.20;99.90;;;;;;5063109;28;20111;-79
2022/03/21 05:54:10;;;;;;;23.42;11.32;;;1.10;99.90;;;;;;5076477;28;20036;-79
2022/03/21 05:56:37;;;;;;;20.58;11.52;;;1.00;99.90;;;;;;5041414;28;20037;-79
2022/03/21 06:01:49;;;;;;;18.40;10.80;;;1.10;99.90;;;;;;5073679;28;20504;-78
2022/03/21 06:04:15;;;;;;;24.10;11.68;;;1.00;99.90;;;;;;5063913;28;20048;-81
2022/03/21 06:06:45;;;;;;;20.20;11.35;;;1.00;99.90;;;;;;5061967;28;20115;-78
2022/03/21 06:09:11;;;;;;;27.80;11.75;;;1.10;99.90;;;;;;5057311;28;20450;-79
2022/03/21 06:11:36;;;;;;;;;;;1.20;99.90;;;;;;5070711;28;20546;-80
2022/03/21 06:14:09;;;;;;;22.48;11.23;;;1.40;99.90;;;;;;5067185;28;20003;-79
2022/03/21 06:16:35;;;;;;;23.60;10.85;;;1.50;99.90;;;;;;5058713;28;20042;-78
2022/03/21 06:19:01;;;;;;;18.67;9.25;;;1.50;99.90;;;;;;5072357;28;20436;-80
2022/03/21 06:21:30;;;;;;;20.35;11.05;;;1.50;99.90;;;;;;5049008;28;20047;-79
2022/03/21 06:23:57;;;;;;;24.75;11.85;;;1.60;99.90;;;;;;5058201;28;20044;-80
2022/03/21 06:26:23;;;;;;;21.70;11.77;;;1.90;99.90;;;;;;5040730;28;20044;-80
2022/03/21 06:28:49;;;;;;;22.55;12.13;;;1.50;99.90;;;;;;5038324;28;20055;-79
2022/03/21 06:31:14;;;;;;;;;;;1.60;99.90;;;;;;5064844;28;20064;-78
2022/03/21 06:33:40;;;;;;;19.80;11.20;;;1.70;99.90;;;;;;5040283;28;19967;-78
2022/03/21 06:36:06;;;;;;;;;;;1.90;99.90;;;;;;5051932;28;20521;-78
2022/03/21 06:38:32;;;;;;;16.13;9.52;;;1.90;99.90;;;;;;5061736;28;19920;-77
2022/03/21 06:40:58;;;;;;;22.58;12.70;;;2.00;99.90;;;;;;5059253;28;20049;-79
2022/03/21 06:43:26;;;;;;;25.60;13.23;;;2.10;99.90;;;;;;5052173;28;20124;-80
2022/03/21 06:45:53;;;;;;;19.88;10.93;;;2.20;99.90;;;;;;5057003;28;20053;-78
2022/03/21 06:48:21;;;;;;;28.80;11.70;;;2.30;99.90;;;;;;5052925;28;20842;-80
2022/03/21 06:50:50;;;;;;;23.75;12.20;;;2.40;99.90;;;;;;5055931;28;20053;-79
2022/03/21 06:53:18;;;;;;;31.92;14.27;;;2.60;99.90;;;;;;5043092;28;20033;-79
2022/03/21 06:55:45;;;;;;;30.90;13.23;;;2.60;99.90;;;;;;5055848;28;20037;-79
2022/03/21 06:58:13;;;;;;;27.77;14.13;;;2.70;99.90;;;;;;5054652;28;20041;-80
2022/03/21 07:00:40;;;;;;;27.35;13.77;;;2.80;99.90;;;;;;5036449;28;20044;-80
2022/03/21 07:03:07;;;;;;;31.10;15.15;;;3.00;99.90;;;;;;5017099;28;20052;-80
2022/03/21 07:05:34;;;;;;;24.83;13.93;;;3.10;99.90;;;;;;5052365;28;20120;-80
2022/03/21 07:08:00;;;;;;;28.05;15.70;;;3.30;99.90;;;;;;5006198;28;20064;-78
2022/03/21 07:10:33;;;;;;;26.48;14.75;;;3.30;99.90;;;;;;5025088;28;20049;-79
2022/03/21 07:13:04;;;;;;;32.65;16.27;;;3.50;99.90;;;;;;5048593;28;20128;-78
2022/03/21 07:15:35;;;;;;;31.75;14.85;;;3.60;99.90;;;;;;5056705;28;20052;-82
2022/03/21 07:18:37;;;;;;;27.58;15.23;;;3.90;99.90;;;;;;5052484;28;20056;-83
2022/03/21 07:21:16;;;;;;;26.08;14.60;;;3.90;99.90;;;;;;5048096;28;20087;-82
2022/03/21 07:24:01;;;;;;;43.25;18.02;;;4.00;99.90;;;;;;5038437;28;20146;-83
2022/03/21 07:26:27;;;;;;;41.03;20.35;;;4.10;99.90;;;;;;5033871;28;20116;-83
2022/03/21 07:28:53;;;;;;;35.47;19.45;;;4.20;99.90;;;;;;5039245;28;20115;-83
2022/03/21 07:31:19;;;;;;;39.17;18.50;;;4.40;99.90;;;;;;5039179;28;20129;-82
2022/03/21 07:33:45;;;;;;;35.28;18.20;;;4.70;99.90;;;;;;5031404;28;20393;-82
2022/03/21 07:36:13;;;;;;;28.58;16.15;;;4.70;99.90;;;;;;5052056;28;20073;-81
2022/03/21 07:38:39;;;;;;;35.05;18.48;;;5.70;99.90;;;;;;5034630;28;20478;-80
2022/03/21 07:41:07;;;;;;;35.83;17.75;;;4.90;99.90;;;;;;5011876;28;20044;-81
2022/03/21 07:43:34;;;;;;;28.95;16.40;;;5.20;99.90;;;;;;5032201;28;20356;-82
2022/03/21 07:48:44;;;;;;;41.55;17.38;;;5.30;99.90;;;;;;5020472;28;20053;-79
2022/03/21 07:51:11;;;;;;;28.20;17.35;;;5.40;99.90;;;;;;5044618;28;20040;-79
2022/03/21 07:53:38;;;;;;;31.48;16.38;;;5.60;99.90;;;;;;5020601;28;20466;-80
2022/03/21 07:56:04;;;;;;;31.08;16.45;;;5.70;99.90;;;;;;5045912;28;20094;-80
2022/03/21 07:58:32;;;;;;;25.92;14.98;;;5.80;99.90;;;;;;5033233;28;20033;-83
2022/03/21 08:01:01;;;;;;;29.20;14.88;;;5.90;99.90;;;;;;5020047;28;20056;-83
2022/03/21 08:03:28;;;;;;;23.50;13.60;;;6.00;99.90;;;;;;5046617;28;20048;-80
2022/03/21 08:06:00;;;;;;;23.73;15.00;;;6.20;99.90;;;;;;5043204;28;20052;-83
2022/03/21 08:08:34;;;;;;;28.75;14.88;;;6.50;99.90;;;;;;5066517;28;20098;-80
2022/03/21 08:11:01;;;;;;;30.77;14.07;;;6.40;99.90;;;;;;5011901;28;20092;-80
2022/03/21 08:13:27;;;;;;;31.30;14.45;;;6.50;99.90;;;;;;5041355;28;20474;-78
2022/03/21 08:15:52;;;;;;;27.30;14.82;;;6.60;99.90;;;;;;5045469;28;20087;-78
2022/03/21 08:18:18;;;;;;;26.45;13.80;;;6.80;99.90;;;;;;5056734;28;20040;-82
2022/03/21 08:21:03;;;;;;;28.13;12.30;;;7.00;99.90;;;;;;5035443;28;20181;-82
2022/03/21 08:23:30;;;;;;;31.23;13.68;;;7.10;99.90;;;;;;5035083;28;20526;-80
2022/03/21 08:25:59;;;;;;;24.38;12.00;;;7.30;99.90;;;;;;5057145;28;20089;-82
2022/03/21 08:28:26;;;;;;;23.90;14.15;;;7.40;99.90;;;;;;5038583;28;20474;-81
2022/03/21 08:30:51;;;;;;;21.13;14.10;;;7.50;99.90;;;;;;5022795;28;20048;-82
2022/03/21 08:33:17;;;;;;;23.17;12.00;;;7.60;99.90;;;;;;5036454;28;20382;-81
2022/03/21 08:35:43;;;;;;;21.27;12.25;;;7.80;99.90;;;;;;5040953;28;20510;-80
2022/03/21 08:38:13;;;;;;;26.90;13.07;;;;;;;;;;5030442;28;20498;-82
2022/03/21 08:40:39;;;;;;;25.38;12.07;;;8.10;99.90;;;;;;5060273;28;20158;-82
2022/03/21 08:43:07;;;;;;;21.92;11.52;;;8.30;99.90;;;;;;5038544;28;20041;-83
2022/03/21 08:45:36;;;;;;;25.27;12.38;;;8.40;99.90;;;;;;5028148;28;20061;-84
2022/03/21 08:48:03;;;;;;;23.45;10.85;;;8.60;99.90;;;;;;5035709;28;20123;-83
2022/03/21 08:50:30;;;;;;;18.58;11.68;;;8.70;99.90;;;;;;5031551;28;20037;-83
2022/03/21 08:52:58;;;;;;;26.73;13.50;;;8.80;99.90;;;;;;5026451;28;20103;-83
2022/03/21 08:55:25;;;;;;;27.40;13.48;;;8.90;99.90;;;;;;5029978;28;20044;-82
2022/03/21 08:57:51;;;;;;;30.25;13.90;;;9.00;99.90;;;;;;5014130;28;20041;-83
2022/03/21 09:00:22;;;;;;;25.38;13.63;;;9.10;99.90;;;;;;5032004;28;20111;-86
2022/03/21 09:03:06;;;;;;;23.92;12.38;;;9.20;99.90;;;;;;5040514;28;20056;-82
2022/03/21 09:05:33;;;;;;;18.98;12.18;;;9.30;99.90;;;;;;5012442;28;20049;-85
2022/03/21 09:08:01;;;;;;;17.45;10.15;;;9.40;99.90;;;;;;5032641;28;20053;-84
2022/03/21 09:10:27;;;;;;;22.80;12.00;;;9.40;99.90;;;;;;4999758;28;20045;-85
2022/03/21 09:12:53;;;;;;;22.08;12.60;;;9.50;99.90;;;;;;5033932;28;20090;-86
2022/03/21 09:15:20;;;;;;;19.52;10.63;;;9.70;99.90;;;;;;4999645;28;20044;-85
2022/03/21 09:17:46;;;;;;;20.63;11.20;;;9.70;99.90;;;;;;5033845;28;20029;-84
2022/03/21 09:20:14;;;;;;;23.27;12.88;;;9.80;99.90;;;;;;5017490;28;20136;-80
2022/03/21 09:22:40;;;;;;;20.63;11.18;;;10.00;99.90;;;;;;5031116;28;20037;-85
2022/03/21 09:25:06;;;;;;;19.98;11.20;;;10.00;99.90;;;;;;5016364;28;20525;-82
2022/03/21 09:27:32;;;;;;;26.30;12.88;;;10.10;99.90;;;;;;5027565;28;20041;-84
2022/03/21 09:29:58;;;;;;;25.88;11.15;;;10.20;99.90;;;;;;5002984;28;20038;-84
2022/03/21 09:32:25;;;;;;;22.05;11.35;;;10.30;99.90;;;;;;5014991;28;20524;-88
2022/03/21 09:34:51;;;;;;;21.10;11.43;;;10.30;99.90;;;;;;5024853;28;20037;-82
2022/03/21 09:37:17;;;;;;;19.65;11.75;;;10.40;99.90;;;;;;5031114;28;20044;-85
2022/03/21 09:39:42;;;;;;;21.75;11.38;;;10.50;99.90;;;;;;5011184;28;20037;-83
2022/03/21 09:42:09;;;;;;;21.00;11.77;;;9.60;99.90;;;;;;5012825;28;20049;-84
2022/03/21 09:44:35;;;;;;;19.52;10.52;;;10.70;99.90;;;;;;5023887;28;20042;-83
2022/03/21 09:49:51;;;;;;;22.35;10.70;;;10.90;99.90;;;;;;5048886;28;20398;-82
2022/03/21 09:52:18;;;;;;;20.55;12.80;;;11.00;99.90;;;;;;5034329;28;20040;-83
2022/03/21 09:54:43;;;;;;;20.67;11.15;;;11.10;99.90;;;;;;5033334;28;20047;-80
2022/03/21 09:57:09;;;;;;;24.55;13.35;;;11.10;99.90;;;;;;5032693;28;20124;-82
2022/03/21 09:59:35;;;;;;;20.30;13.20;;;11.10;99.90;;;;;;5015023;28;20052;-80
2022/03/21 10:02:03;;;;;;;13.85;9.30;;;11.20;99.90;;;;;;5051890;28;20086;-80
2022/03/21 10:04:30;;;;;;;18.73;11.43;;;11.30;99.90;;;;;;5016349;28;20033;-81
2022/03/21 10:07:00;;;;;;;18.55;10.02;;;11.40;99.90;;;;;;5033315;28;20048;-82
2022/03/21 10:09:27;;;;;;;20.38;11.63;;;11.40;99.90;;;;;;5050723;28;20091;-84
2022/03/21 10:11:58;;;;;;;20.92;11.57;;;11.40;99.90;;;;;;5017342;28;20041;-82
2022/03/21 10:14:32;;;;;;;20.08;11.38;;;11.50;99.90;;;;;;5042599;28;20041;-84
2022/03/21 10:17:03;;;;;;;17.67;9.70;;;11.60;99.90;;;;;;5043718;28;20068;-83
2022/03/21 10:19:46;;;;;;;19.33;9.60;;;11.60;96.20;;;;;;5037525;28;20048;-83
2022/03/21 10:22:14;;;;;;;17.98;9.32;;;11.70;94.80;;;;;;5007001;28;20044;-82
2022/03/21 10:24:47;;;;;;;17.42;9.13;;;11.80;94.90;;;;;;5047790;28;20072;-82
2022/03/21 10:27:39;;;;;;;16.75;9.93;;;11.90;90.50;;;;;;5045384;28;20057;-81
2022/03/21 10:30:15;;;;;;;19.80;10.07;;;12.00;95.10;;;;;;5042316;28;20093;-80
2022/03/21 10:32:46;;;;;;;20.05;9.77;;;12.10;91.60;;;;;;5057214;28;20040;-80
2022/03/21 10:35:23;;;;;;;17.52;9.73;;;12.10;92.80;;;;;;5037932;28;20402;-82
2022/03/21 10:37:55;;;;;;;16.23;9.48;;;12.10;94.00;;;;;;5052916;28;20044;-82
2022/03/21 10:40:44;;;;;;;21.13;10.50;;;12.20;94.60;;;;;;5028461;28;20041;-81
2022/03/21 10:43:10;;;;;;;19.00;9.40;;;12.20;92.90;;;;;;5029436;28;20046;-82
2022/03/21 10:45:51;;;;;;;15.30;8.95;;;12.20;94.30;;;;;;5051983;28;20071;-83
2022/03/21 10:48:22;;;;;;;18.35;10.48;;;12.30;93.70;;;;;;5052273;28;20041;-81
2022/03/21 10:50:53;;;;;;;19.77;10.35;;;12.40;95.40;;;;;;5040988;28;20121;-84
2022/03/21 10:53:22;;;;;;;13.93;9.90;;;12.50;95.50;;;;;;5033229;28;20095;-82
2022/03/21 10:55:57;;;;;;;19.60;10.10;;;12.50;94.30;;;;;;5048271;28;20083;-84
2022/03/21 10:58:49;;;;;;;17.10;10.15;;;12.60;94.70;;;;;;5036558;28;20124;-82
2022/03/21 11:01:17;;;;;;;22.70;11.40;;;12.60;94.00;;;;;;5016027;28;20049;-83
2022/03/21 11:03:46;;;;;;;21.13;10.02;;;12.80;88.50;;;;;;5048776;28;20512;-84
2022/03/21 11:06:14;;;;;;;20.67;11.60;;;12.80;90.10;;;;;;5045328;28;20097;-82
2022/03/21 11:08:47;;;;;;;18.55;11.50;;;12.90;88.00;;;;;;5041001;28;20040;-82
2022/03/21 11:11:15;;;;;;;17.45;10.50;;;13.30;83.00;;;;;;5038707;28;20052;-82
2022/03/21 11:13:42;;;;;;;16.90;10.43;;;12.80;85.40;;;;;;5052949;28;20069;-82
2022/03/21 11:16:09;;;;;;;17.08;10.52;;;12.80;85.20;;;;;;5036496;28;20056;-81
2022/03/21 11:18:34;;;;;;;;;;;12.80;89.10;;;;;;5019755;28;20037;-85
2022/03/21 11:21:01;;;;;;;17.33;10.13;;;12.90;87.30;;;;;;5053567;28;20423;-83
2022/03/21 11:23:27;;;;;;;25.95;10.35;;;13.00;91.10;;;;;;5037634;28;20037;-84
2022/03/21 11:26:22;;;;;;;24.80;10.68;;;13.20;91.70;;;;;;5037645;28;20049;-85
2022/03/21 11:29:14;;;;;;;17.35;11.10;;;13.40;91.50;;;;;;5038480;28;20120;-80
2022/03/21 11:32:08;;;;;;;17.50;10.57;;;13.50;90.90;;;;;;5034651;28;20045;-81
2022/03/21 11:34:47;;;;;;;17.73;10.52;;;13.70;89.20;;;;;;5066000;28;20530;-82
2022/03/21 11:37:29;;;;;;;18.35;10.90;;;13.60;84.50;;;;;;5052793;28;20475;-80
2022/03/21 11:40:26;;;;;;;18.48;11.70;;;13.50;77.50;;;;;;5053575;28;20114;-82
2022/03/21 11:42:53;;;;;;;17.52;10.25;;;13.60;78.70;;;;;;5048339;28;20044;-78
2022/03/21 11:45:27;;;;;;;18.40;11.50;;;13.60;78.50;;;;;;5024295;28;20095;-81
2022/03/21 11:48:18;;;;;;;17.02;10.63;;;13.60;77.00;;;;;;5031232;28;20448;-80
2022/03/21 11:50:48;;;;;;;22.83;10.65;;;13.70;80.30;;;;;;5031751;28;20081;-83
2022/03/21 11:53:15;;;;;;;18.30;11.38;;;13.80;77.50;;;;;;5014804;28;20077;-80
2022/03/21 11:55:44;;;;;;;18.48;10.57;;;13.80;75.50;;;;;;5013667;28;20147;-77
2022/03/21 11:58:38;;;;;;;18.27;10.15;;;13.90;77.50;;;;;;5002059;28;20048;-80
2022/03/21 12:01:28;;;;;;;16.73;9.68;;;13.90;77.20;;;;;;5013861;28;20049;-83
2022/03/21 12:04:42;;;;;;;16.75;10.13;;;14.10;74.40;;;;;;5006641;28;20049;-84
2022/03/21 12:07:13;;;;;;;19.33;10.00;;;14.10;74.30;;;;;;4984017;28;20490;-83
2022/03/21 12:09:43;;;;;;;20.65;11.38;;;14.30;78.70;;;;;;4944460;28;20401;-78
2022/03/21 12:12:10;;;;;;;21.05;11.32;;;14.40;76.80;;;;;;4988364;28;20056;-81
2022/03/21 12:14:54;;;;;;;18.27;10.65;;;14.40;76.80;;;;;;5005753;28;20040;-82
2022/03/21 12:17:23;;;;;;;17.80;11.43;;;14.50;77.10;;;;;;5006939;28;20045;-80
2022/03/21 12:19:54;;;;;;;22.60;11.43;;;14.50;79.30;;;;;;5014502;28;20133;-82
2022/03/21 12:22:36;;;;;;;18.45;10.77;;;14.70;79.60;;;;;;5014946;28;20092;-80
2022/03/21 12:25:27;;;;;;;18.73;10.82;;;14.70;76.40;;;;;;4997204;28;20623;-83
2022/03/21 12:29:31;;;;;;;17.05;9.40;;;14.80;71.10;;;;;;5006035;28;20467;-78
2022/03/21 12:31:31;;;;;;;16.00;9.27;;;14.20;72.50;;;;;;5025046;28;20538;-81
2022/03/21 12:34:34;;;;;;;15.95;10.02;;;14.70;72.90;;;;;;5021815;28;20125;-81
2022/03/21 12:37:38;;;;;;;18.35;10.02;;;14.90;75.50;;;;;;5005884;28;20041;-82
2022/03/21 12:40:09;;;;;;;19.75;10.15;;;15.00;68.80;;;;;;5008179;28;20049;-81
2022/03/21 12:42:41;;;;;;;21.40;11.20;;;15.00;70.90;;;;;;5021249;28;20100;-83
2022/03/21 12:45:07;;;;;;;18.88;10.35;;;15.00;72.60;;;;;;5018959;28;20053;-80
2022/03/21 12:47:36;;;;;;;16.10;10.55;;;15.10;73.90;;;;;;5002908;28;20041;-80
2022/03/21 12:50:05;;;;;;;22.20;10.60;;;15.20;70.60;;;;;;5021159;28;20087;-79
2022/03/21 12:52:32;;;;;;;20.42;11.60;;;15.20;73.50;;;;;;5043389;28;20171;-79
2022/03/21 12:54:58;;;;;;;14.77;9.80;;;15.20;74.50;;;;;;5029786;28;20041;-80
2022/03/21 12:57:23;;;;;;;;;;;15.30;73.00;;;;;;5056133;28;20385;-82
2022/03/21 12:59:49;;;;;;;22.88;10.73;;;15.20;67.70;;;;;;5020743;28;19920;-83
2022/03/21 13:02:25;;;;;;;;;;;15.20;73.30;;;;;;5037043;28;20040;-81
2022/03/21 13:10:43;;;;;;;16.65;10.43;;;15.80;75.00;;;;;;5058573;28;20725;-81
2022/03/21 13:13:09;;;;;;;22.08;13.10;;;15.90;72.90;;;;;;5036038;28;20036;-80
2022/03/21 13:15:35;;;;;;;19.92;11.25;;;16.00;73.30;;;;;;5037500;28;20043;-81
2022/03/21 13:18:05;;;;;;;17.23;10.70;;;16.10;73.10;;;;;;5054163;28;20040;-80